createdAt,value
2023-03-01T00:01:38.980Z,6.28
2023-03-01T00:03:40.844Z,6.15
2023-03-01T00:05:48.525Z,6.45
2023-03-01T00:07:53.994Z,5.70
2023-03-01T00:09:55.655Z,6.18
2023-03-01T00:11:57.491Z,6.38
2023-03-01T00:14:01.923Z,6.15
2023-03-01T00:16:05.838Z,5.85
2023-03-01T00:18:07.616Z,6.40
2023-03-01T00:20:11.237Z,6.30
2023-03-01T00:22:12.952Z,5.97
2023-03-01T00:24:15.111Z,5.70
2023-03-01T00:26:18.991Z,5.93
2023-03-01T00:28:21.373Z,5.82
2023-03-01T00:30:23.134Z,5.78
2023-03-01T00:32:24.878Z,6.18
2023-03-01T00:34:26.576Z,6.18
2023-03-01T00:36:34.374Z,6.43
2023-03-01T00:38:37.860Z,5.60
2023-03-01T00:40:39.503Z,5.85
2023-03-01T00:42:41.324Z,6.30
2023-03-01T00:44:43.500Z,6.10
2023-03-01T00:46:45.121Z,5.68
2023-03-01T00:48:46.963Z,5.88
2023-03-01T00:50:48.630Z,6.35
2023-03-01T00:52:54.847Z,6.45
2023-03-01T00:54:56.577Z,6.53
2023-03-01T00:56:58.249Z,6.13
2023-03-01T00:58:59.906Z,5.50
2023-03-01T01:01:02.023Z,6.57
2023-03-01T01:03:03.779Z,5.97
2023-03-01T01:05:06.132Z,6.55
2023-03-01T01:07:07.822Z,6.38
2023-03-01T01:09:17.785Z,5.90
2023-03-01T01:11:20.189Z,6.07
2023-03-01T01:13:22.564Z,5.82
2023-03-01T01:15:24.193Z,6.20
2023-03-01T01:17:26.142Z,6.05
2023-03-01T01:19:28.203Z,6.10
2023-03-01T01:21:29.914Z,5.88
2023-03-01T01:23:31.665Z,5.75
2023-03-01T01:25:35.933Z,6.05
2023-03-01T01:27:37.749Z,5.85
2023-03-01T01:29:39.412Z,6.15
2023-03-01T01:31:42.768Z,5.93
2023-03-01T01:33:44.699Z,5.95
2023-03-01T01:35:46.923Z,5.90
2023-03-01T01:37:48.568Z,5.80
2023-03-01T01:39:50.192Z,5.90
2023-03-01T01:41:51.919Z,6.28
2023-03-01T01:44:16.279Z,5.93
2023-03-01T01:46:36.686Z,5.82
2023-03-01T01:48:47.957Z,6.47
2023-03-01T01:52:56.328Z,5.82
2023-03-01T01:55:03.376Z,6.03
2023-03-01T01:57:10.396Z,5.97
2023-03-01T01:59:12.833Z,6.05
2023-03-01T02:01:14.673Z,6.13
2023-03-01T02:03:23.965Z,6.00
2023-03-01T02:05:36.103Z,6.20
2023-03-01T02:07:40.690Z,6.03
2023-03-01T02:09:46.542Z,6.75
2023-03-01T02:11:49.376Z,6.05
2023-03-01T02:13:51.464Z,5.95
2023-03-01T02:15:53.455Z,6.32
2023-03-01T02:17:55.897Z,6.78
2023-03-01T02:20:21.909Z,6.30
2023-03-01T02:22:28.030Z,6.32
2023-03-01T02:24:43.982Z,6.00
2023-03-01T02:26:53.765Z,6.30
2023-03-01T02:28:55.706Z,6.40
2023-03-01T02:31:16.316Z,6.65
2023-03-01T02:33:18.237Z,6.30
2023-03-01T02:35:20.842Z,5.97
2023-03-01T02:37:25.649Z,5.72
2023-03-01T02:39:42.878Z,6.80
2023-03-01T02:41:49.052Z,6.10
2023-03-01T02:43:50.811Z,6.05
2023-03-01T02:45:53.904Z,6.07
2023-03-01T02:47:56.404Z,6.82
2023-03-01T02:49:58.064Z,6.38
2023-03-01T02:52:14.673Z,5.80
2023-03-01T02:54:49.406Z,6.10
2023-03-01T02:56:51.752Z,6.40
2023-03-01T02:58:53.718Z,6.05
2023-03-01T03:00:56.412Z,6.18
2023-03-01T03:02:58.092Z,5.97
2023-03-01T03:04:59.785Z,6.20
2023-03-01T03:07:01.511Z,7.20
2023-03-01T03:09:05.090Z,6.45
2023-03-01T03:11:06.783Z,6.43
2023-03-01T03:13:14.183Z,6.25
2023-03-01T03:15:15.917Z,6.40
2023-03-01T03:17:17.575Z,6.47
2023-03-01T03:19:20.483Z,6.53
2023-03-01T03:21:22.170Z,6.82
2023-03-01T03:23:24.441Z,6.35
2023-03-01T03:25:27.954Z,6.63
2023-03-01T03:27:29.813Z,6.18
2023-03-01T03:29:31.646Z,6.38
2023-03-01T03:31:33.398Z,6.22
2023-03-01T03:33:35.224Z,6.57
2023-03-01T03:35:43.582Z,6.90
2023-03-01T03:38:03.221Z,6.15
2023-03-01T03:40:16.207Z,6.05
2023-03-01T03:42:17.908Z,7.10
2023-03-01T03:44:19.674Z,6.28
2023-03-01T03:46:21.352Z,6.72
2023-03-01T03:48:23.063Z,6.03
2023-03-01T03:50:24.723Z,6.55
2023-03-01T03:52:26.367Z,6.45
2023-03-01T03:54:27.989Z,7.05
2023-03-01T03:56:30.408Z,6.35
2023-03-01T03:58:33.171Z,6.72
2023-03-01T04:00:37.937Z,6.53
2023-03-01T04:02:43.978Z,7.10
2023-03-01T04:04:45.637Z,6.07
2023-03-01T04:06:49.335Z,6.25
2023-03-01T04:08:51.992Z,6.75
2023-03-01T04:11:00.316Z,6.60
2023-03-01T04:13:02.005Z,6.43
2023-03-01T04:15:13.630Z,6.82
2023-03-01T04:17:15.352Z,6.53
2023-03-01T04:19:16.996Z,6.93
2023-03-01T04:21:18.733Z,6.45
2023-03-01T04:23:21.712Z,6.93
2023-03-01T04:25:23.768Z,6.40
2023-03-01T04:27:25.408Z,6.38
2023-03-01T04:29:27.009Z,6.50
2023-03-01T04:31:29.304Z,6.18
2023-03-01T04:33:30.983Z,6.38
2023-03-01T04:35:33.719Z,5.85
2023-03-01T04:37:35.912Z,6.72
2023-03-01T04:39:46.231Z,6.50
2023-03-01T04:41:47.986Z,6.75
2023-03-01T04:43:50.132Z,6.22
2023-03-01T04:45:51.893Z,6.15
2023-03-01T04:47:53.575Z,6.38
2023-03-01T04:49:55.218Z,5.90
2023-03-01T04:51:59.228Z,5.95
2023-03-01T04:54:01.468Z,6.63
2023-03-01T04:56:03.966Z,5.93
2023-03-01T04:58:05.563Z,6.15
2023-03-01T05:00:21.426Z,7.05
2023-03-01T05:02:23.516Z,6.03
2023-03-01T05:04:26.076Z,5.90
2023-03-01T05:06:28.905Z,6.32
2023-03-01T05:08:30.877Z,7.07
2023-03-01T05:10:35.859Z,6.80
2023-03-01T05:12:38.355Z,5.53
2023-03-01T05:14:40.397Z,5.80
2023-03-01T05:16:42.072Z,5.60
2023-03-01T05:18:44.502Z,5.90
2023-03-01T05:20:46.145Z,5.63
2023-03-01T05:22:47.789Z,6.03
2023-03-01T05:24:49.419Z,6.05
2023-03-01T05:26:52.833Z,6.10
2023-03-01T05:28:59.490Z,6.20
2023-03-01T05:31:01.754Z,6.13
2023-03-01T05:33:03.505Z,5.85
2023-03-01T05:35:05.641Z,6.35
2023-03-01T05:37:08.526Z,7.03
2023-03-01T05:39:10.147Z,6.82
2023-03-01T05:41:17.971Z,5.72
2023-03-01T05:43:19.696Z,6.60
2023-03-01T05:45:22.411Z,6.75
2023-03-01T05:47:23.995Z,6.25
2023-03-01T05:49:25.777Z,6.60
2023-03-01T05:51:27.426Z,6.78
2023-03-01T05:53:29.082Z,7.32
2023-03-01T05:55:32.048Z,7.25
2023-03-01T05:57:33.740Z,6.70
2023-03-01T05:59:36.003Z,6.57
2023-03-01T06:01:38.213Z,6.32
2023-03-01T06:03:39.809Z,6.75
2023-03-01T06:05:42.427Z,6.47
2023-03-01T06:07:44.931Z,6.70
2023-03-01T06:09:46.620Z,5.72
2023-03-01T06:11:48.257Z,6.75
2023-03-01T06:13:49.911Z,5.95
2023-03-01T06:15:51.747Z,6.63
2023-03-01T06:17:58.806Z,6.45
2023-03-01T06:20:01.973Z,6.32
2023-03-01T06:22:03.601Z,7.38
2023-03-01T06:24:06.902Z,6.70
2023-03-01T06:26:09.848Z,6.75
2023-03-01T06:28:11.523Z,6.65
2023-03-01T06:30:16.277Z,6.75
2023-03-01T06:32:18.052Z,6.47
2023-03-01T06:34:20.477Z,7.13
2023-03-01T06:36:22.904Z,6.10
2023-03-01T06:38:26.063Z,6.57
2023-03-01T06:40:27.989Z,6.72
2023-03-01T06:42:29.638Z,6.63
2023-03-01T06:44:31.328Z,6.30
2023-03-01T06:46:33.343Z,7.43
2023-03-01T06:48:35.512Z,6.65
2023-03-01T06:50:38.495Z,7.20
2023-03-01T06:52:40.274Z,7.20
2023-03-01T06:54:41.904Z,7.47
2023-03-01T06:56:43.498Z,6.75
2023-03-01T06:58:45.147Z,6.50
2023-03-01T07:00:46.834Z,6.00
2023-03-01T07:02:48.511Z,7.03
2023-03-01T07:04:51.646Z,7.30
2023-03-01T07:06:56.080Z,6.80
2023-03-01T07:08:57.750Z,6.50
2023-03-01T07:10:59.976Z,7.00
2023-03-01T07:13:01.764Z,6.60
2023-03-01T07:15:04.110Z,6.63
2023-03-01T07:17:05.721Z,6.95
2023-03-01T07:19:07.349Z,6.85
2023-03-01T07:21:10.459Z,7.00
2023-03-01T07:23:12.108Z,6.57
2023-03-01T07:25:13.799Z,6.90
2023-03-01T07:27:15.492Z,6.85
2023-03-01T07:29:18.214Z,7.28
2023-03-01T07:31:19.835Z,6.55
2023-03-01T07:33:21.948Z,7.38
2023-03-01T07:35:24.705Z,6.80
2023-03-01T07:37:26.377Z,7.45
2023-03-01T07:39:28.103Z,6.97
2023-03-01T07:41:30.557Z,7.43
2023-03-01T07:43:32.456Z,7.53
2023-03-01T07:45:34.087Z,6.65
2023-03-01T07:47:35.775Z,7.38
2023-03-01T07:49:37.437Z,6.88
2023-03-01T07:51:39.223Z,7.03
2023-03-01T07:53:41.022Z,7.15
2023-03-01T07:55:42.699Z,7.40
2023-03-01T07:57:44.324Z,7.43
2023-03-01T07:59:46.174Z,7.55
2023-03-01T08:01:47.890Z,6.72
2023-03-01T08:03:49.739Z,7.15
2023-03-01T08:05:51.444Z,6.30
2023-03-01T08:07:53.169Z,7.13
2023-03-01T08:09:54.819Z,7.32
2023-03-01T08:12:00.375Z,7.57
2023-03-01T08:14:02.049Z,6.88
2023-03-01T08:16:06.226Z,6.40
2023-03-01T08:18:07.907Z,7.05
2023-03-01T08:20:13.247Z,6.75
2023-03-01T08:22:14.891Z,7.47
2023-03-01T08:24:16.604Z,7.10
2023-03-01T08:26:21.456Z,7.57
2023-03-01T08:28:23.087Z,6.88
2023-03-01T08:30:25.107Z,6.97
2023-03-01T08:32:26.837Z,6.82
2023-03-01T08:34:28.643Z,7.50
2023-03-01T08:36:33.273Z,7.15
2023-03-01T08:38:36.250Z,7.47
2023-03-01T08:40:37.929Z,7.13
2023-03-01T08:42:39.705Z,6.70
2023-03-01T08:44:41.317Z,6.95
2023-03-01T08:46:43.960Z,7.50
2023-03-01T08:48:45.586Z,7.47
2023-03-01T08:50:47.438Z,7.10
2023-03-01T08:52:49.104Z,7.28
2023-03-01T08:54:50.775Z,7.70
2023-03-01T08:56:52.476Z,6.85
2023-03-01T08:58:54.123Z,7.50
2023-03-01T09:00:57.436Z,7.05
2023-03-01T09:02:59.341Z,7.43
2023-03-01T09:05:01.008Z,7.22
2023-03-01T09:07:02.704Z,7.25
2023-03-01T09:09:06.144Z,7.68
2023-03-01T09:11:12.887Z,7.10
2023-03-01T09:13:14.545Z,7.22
2023-03-01T09:15:16.313Z,7.40
2023-03-01T09:17:18.046Z,7.63
2023-03-01T09:19:19.701Z,7.05
2023-03-01T09:21:37.581Z,7.18
2023-03-01T09:23:45.012Z,7.25
2023-03-01T09:25:46.672Z,6.75
2023-03-01T09:27:48.280Z,6.75
2023-03-01T09:29:49.887Z,7.03
2023-03-01T09:31:51.532Z,6.80
2023-03-01T09:33:54.769Z,7.82
2023-03-01T09:36:05.714Z,6.85
2023-03-01T09:38:07.426Z,6.93
2023-03-01T09:40:16.592Z,7.00
2023-03-01T09:42:18.301Z,6.30
2023-03-01T09:44:49.010Z,7.13
2023-03-01T09:46:52.200Z,7.55
2023-03-01T09:49:11.484Z,7.60
2023-03-01T09:51:26.669Z,7.20
2023-03-01T09:53:34.217Z,7.05
2023-03-01T09:56:04.671Z,7.63
2023-03-01T09:58:39.552Z,7.40
2023-03-01T10:00:45.481Z,7.03
2023-03-01T10:02:56.094Z,6.80
2023-03-01T10:05:39.509Z,7.22
2023-03-01T10:08:07.368Z,6.70
2023-03-01T10:10:17.341Z,6.82
2023-03-01T10:12:27.030Z,6.63
2023-03-01T10:14:47.877Z,6.70
2023-03-01T10:16:54.926Z,6.90
2023-03-01T10:19:01.553Z,6.35
2023-03-01T10:21:14.114Z,7.40
2023-03-01T10:23:15.773Z,6.70
2023-03-01T10:25:43.437Z,6.18
2023-03-01T10:27:53.473Z,6.88
2023-03-01T10:30:23.218Z,7.15
2023-03-01T10:32:25.783Z,7.35
2023-03-01T10:34:33.048Z,7.15
2023-03-01T10:36:35.466Z,6.82
2023-03-01T10:38:55.315Z,7.28
2023-03-01T10:41:08.155Z,6.75
2023-03-01T10:43:13.148Z,7.18
2023-03-01T10:45:31.916Z,7.28
2023-03-01T10:47:33.514Z,6.88
2023-03-01T10:49:36.551Z,7.25
2023-03-01T10:51:41.184Z,7.30
2023-03-01T10:53:44.291Z,6.80
2023-03-01T10:55:45.995Z,6.95
2023-03-01T10:57:47.789Z,7.00
2023-03-01T11:00:03.708Z,6.97
2023-03-01T11:02:35.046Z,6.90
2023-03-01T11:06:40.729Z,7.03
2023-03-01T11:08:43.663Z,6.97
2023-03-01T11:10:45.315Z,7.45
2023-03-01T11:12:46.963Z,6.97
2023-03-01T11:14:55.072Z,7.30
2023-03-01T11:17:06.074Z,6.78
2023-03-01T11:19:10.476Z,7.20
2023-03-01T11:21:12.184Z,6.93
2023-03-01T11:23:15.124Z,6.50
2023-03-01T11:25:20.447Z,7.00
2023-03-01T11:27:33.798Z,6.93
2023-03-01T11:29:48.898Z,7.75
2023-03-01T11:31:57.636Z,7.00
2023-03-01T11:34:17.155Z,7.22
2023-03-01T11:36:36.704Z,7.07
2023-03-01T11:38:39.661Z,6.68
2023-03-01T11:40:54.343Z,7.57
2023-03-01T11:43:15.839Z,6.78
2023-03-01T11:45:17.576Z,6.63
2023-03-01T11:47:41.577Z,6.88
2023-03-01T11:50:14.176Z,7.00
2023-03-01T11:52:40.592Z,7.20
2023-03-01T11:55:18.633Z,7.00
2023-03-01T11:58:01.701Z,6.90
2023-03-01T12:00:28.264Z,7.05
2023-03-01T12:03:04.036Z,6.43
2023-03-01T12:05:20.977Z,7.00
2023-03-01T12:07:37.067Z,6.95
2023-03-01T12:09:39.483Z,6.00
2023-03-01T12:11:49.190Z,7.22
2023-03-01T12:14:23.854Z,6.75
2023-03-01T12:16:38.835Z,6.45
2023-03-01T12:18:47.036Z,6.63
2023-03-01T12:21:13.304Z,6.65
2023-03-01T12:23:41.298Z,6.55
2023-03-01T12:25:49.849Z,6.50
2023-03-01T12:28:23.713Z,6.30
2023-03-01T12:30:51.246Z,6.85
2023-03-01T12:33:17.717Z,6.53
2023-03-01T12:35:53.187Z,6.60
2023-03-01T12:38:17.517Z,6.65
2023-03-01T12:40:39.582Z,7.00
2023-03-01T12:42:58.554Z,6.35
2023-03-01T12:45:45.365Z,6.47
2023-03-01T12:48:08.268Z,6.50
2023-03-01T12:50:15.584Z,6.30
2023-03-01T12:52:47.526Z,5.93
2023-03-01T12:54:52.309Z,6.38
2023-03-01T12:56:54.964Z,6.10
2023-03-01T12:59:30.642Z,6.07
2023-03-01T13:02:20.628Z,6.20
2023-03-01T13:04:22.249Z,6.50
2023-03-01T13:06:43.787Z,6.40
2023-03-01T13:09:05.143Z,5.60
2023-03-01T13:11:18.550Z,6.55
2023-03-01T13:13:27.897Z,6.22
2023-03-01T13:15:32.123Z,5.82
2023-03-01T13:17:42.994Z,5.82
2023-03-01T13:21:58.457Z,5.95
2023-03-01T13:24:00.139Z,6.68
2023-03-01T13:26:13.527Z,6.13
2023-03-01T13:28:44.073Z,5.63
2023-03-01T13:30:45.762Z,6.53
2023-03-01T13:32:47.472Z,6.68
2023-03-01T13:35:00.319Z,6.30
2023-03-01T13:37:26.982Z,5.95
2023-03-01T13:39:34.613Z,6.13
2023-03-01T13:41:42.402Z,6.13
2023-03-01T13:43:46.895Z,5.95
2023-03-01T13:45:49.337Z,5.65
2023-03-01T13:47:59.238Z,5.93
2023-03-01T13:50:04.369Z,6.63
2023-03-01T13:52:06.926Z,5.82
2023-03-01T13:54:13.291Z,6.38
2023-03-01T13:56:20.736Z,5.22
2023-03-01T13:58:34.164Z,5.80
2023-03-01T14:00:38.931Z,5.78
2023-03-01T14:02:42.386Z,6.53
2023-03-01T14:04:44.085Z,5.88
2023-03-01T14:06:45.728Z,5.97
2023-03-01T14:08:50.452Z,5.80
2023-03-01T14:11:01.210Z,5.43
2023-03-01T14:13:24.790Z,5.85
2023-03-01T14:15:34.263Z,5.93
2023-03-01T14:17:48.521Z,5.25
2023-03-01T14:19:57.009Z,5.82
2023-03-01T14:22:29.110Z,5.75
2023-03-01T14:24:33.822Z,5.85
2023-03-01T14:26:37.503Z,5.40
2023-03-01T14:28:40.116Z,5.95
2023-03-01T14:30:55.802Z,5.32
2023-03-01T14:33:08.069Z,5.75
2023-03-01T14:35:28.758Z,5.50
2023-03-01T14:37:33.441Z,5.85
2023-03-01T14:39:35.087Z,5.10
2023-03-01T14:41:37.209Z,5.78
2023-03-01T14:43:42.257Z,5.05
2023-03-01T14:45:49.188Z,5.18
2023-03-01T14:47:52.082Z,5.30
2023-03-01T14:50:02.661Z,5.10
2023-03-01T14:52:07.540Z,5.35
2023-03-01T14:54:29.145Z,5.35
2023-03-01T14:56:45.060Z,5.57
2023-03-01T14:58:48.647Z,5.55
2023-03-01T15:00:59.948Z,5.30
2023-03-01T15:03:15.610Z,5.60
2023-03-01T15:05:30.765Z,5.28
2023-03-01T15:07:36.431Z,4.97
2023-03-01T15:09:38.402Z,5.13
2023-03-01T15:11:44.442Z,5.30
2023-03-01T15:13:47.406Z,5.05
2023-03-01T15:15:51.015Z,5.07
2023-03-01T15:17:58.942Z,4.95
2023-03-01T15:20:01.826Z,5.43
2023-03-01T15:22:13.035Z,5.07
2023-03-01T15:24:20.800Z,5.50
2023-03-01T15:26:26.374Z,4.97
2023-03-01T15:28:34.089Z,5.45
2023-03-01T15:30:38.535Z,5.35
2023-03-01T15:32:43.272Z,5.30
2023-03-01T15:34:44.975Z,4.90
2023-03-01T15:36:50.619Z,5.15
2023-03-01T15:38:57.758Z,5.05
2023-03-01T15:41:03.477Z,5.22
2023-03-01T15:43:06.901Z,5.75
2023-03-01T15:45:12.997Z,5.50
2023-03-01T15:47:35.687Z,4.85
2023-03-01T15:49:54.024Z,5.95
2023-03-01T15:51:56.749Z,4.82
2023-03-01T15:54:01.263Z,5.45
2023-03-01T15:56:02.972Z,5.22
2023-03-01T15:58:10.549Z,6.70
2023-03-01T16:00:14.395Z,10.38
2023-03-01T16:02:16.545Z,11.60
2023-03-01T16:04:23.934Z,9.80
2023-03-01T16:06:26.016Z,8.30
2023-03-01T16:08:27.678Z,7.88
2023-03-01T16:10:29.912Z,7.20
2023-03-01T16:12:31.590Z,6.45
2023-03-01T16:14:33.291Z,6.00
2023-03-01T16:16:36.557Z,6.53
2023-03-01T16:18:38.356Z,6.68
2023-03-01T16:20:40.490Z,6.88
2023-03-01T16:22:45.854Z,6.30
2023-03-01T16:24:47.507Z,6.68
2023-03-01T16:26:49.193Z,6.82
2023-03-01T16:28:50.946Z,6.68
2023-03-01T16:30:52.622Z,6.43
2023-03-01T16:32:54.604Z,5.82
2023-03-01T16:34:56.612Z,6.10
2023-03-01T16:36:58.214Z,5.93
2023-03-01T16:39:01.544Z,6.25
2023-03-01T16:41:03.358Z,6.32
2023-03-01T16:43:06.659Z,6.63
2023-03-01T16:45:18.415Z,6.60
2023-03-01T16:47:25.001Z,6.97
2023-03-01T16:49:26.760Z,6.70
2023-03-01T16:51:30.975Z,6.22
2023-03-01T16:53:33.169Z,6.07
2023-03-01T16:55:34.905Z,5.78
2023-03-01T16:57:38.540Z,5.70
2023-03-01T16:59:40.366Z,6.15
2023-03-01T17:01:42.352Z,6.05
2023-03-01T17:03:44.865Z,6.32
2023-03-01T17:05:46.611Z,6.95
2023-03-01T17:07:48.294Z,8.15
2023-03-01T17:09:50.090Z,6.93
2023-03-01T17:11:51.796Z,6.18
2023-03-01T17:13:53.507Z,6.15
2023-03-01T17:15:55.214Z,5.93
2023-03-01T17:17:56.901Z,6.15
2023-03-01T17:19:58.774Z,6.22
2023-03-01T17:22:01.178Z,6.50
2023-03-01T17:24:03.867Z,6.03
2023-03-01T17:26:06.555Z,6.18
2023-03-01T17:28:08.243Z,6.30
2023-03-01T17:30:14.472Z,6.88
2023-03-01T17:32:16.321Z,6.80
2023-03-01T17:34:18.120Z,6.28
2023-03-01T17:36:19.767Z,6.00
2023-03-01T17:38:21.432Z,6.70
2023-03-01T17:40:23.065Z,5.88
2023-03-01T17:42:24.723Z,6.13
2023-03-01T17:44:26.596Z,7.30
2023-03-01T17:46:28.696Z,5.82
2023-03-01T17:48:30.658Z,6.25
2023-03-01T17:50:33.099Z,6.13
2023-03-01T17:52:34.764Z,5.85
2023-03-01T17:54:36.461Z,6.32
2023-03-01T17:56:38.732Z,6.80
2023-03-01T17:58:40.439Z,6.43
2023-03-01T18:00:42.177Z,6.88
2023-03-01T18:02:44.436Z,6.43
2023-03-01T18:04:46.400Z,6.25
2023-03-01T18:06:48.024Z,6.45
2023-03-01T18:08:50.695Z,6.50
2023-03-01T18:10:58.730Z,6.57
2023-03-01T18:13:00.690Z,6.40
2023-03-01T18:15:02.391Z,5.78
2023-03-01T18:17:06.513Z,5.43
2023-03-01T18:19:08.196Z,6.00
2023-03-01T18:21:09.925Z,5.93
2023-03-01T18:23:11.704Z,5.63
2023-03-01T18:25:13.565Z,6.13
2023-03-01T18:27:15.278Z,6.60
2023-03-01T18:29:16.948Z,6.40
2023-03-01T18:31:22.321Z,5.07
2023-03-01T18:33:24.485Z,6.15
2023-03-01T18:35:26.234Z,6.18
2023-03-01T18:37:27.969Z,6.13
2023-03-01T18:39:29.681Z,6.15
2023-03-01T18:41:34.891Z,5.80
2023-03-01T18:43:36.617Z,6.25
2023-03-01T18:45:38.293Z,6.28
2023-03-01T18:47:40.031Z,6.30
2023-03-01T18:49:41.774Z,5.80
2023-03-01T18:51:43.523Z,6.20
2023-03-01T18:53:45.746Z,5.82
2023-03-01T18:55:47.427Z,6.10
2023-03-01T18:57:49.079Z,6.35
2023-03-01T18:59:50.700Z,7.85
2023-03-01T19:01:52.485Z,6.45
2023-03-01T19:03:56.136Z,7.10
2023-03-01T19:06:00.945Z,5.75
2023-03-01T19:08:02.658Z,6.03
2023-03-01T19:10:04.766Z,6.15
2023-03-01T19:12:06.612Z,5.88
2023-03-01T19:14:08.639Z,6.47
2023-03-01T19:16:18.915Z,5.75
2023-03-01T19:18:20.574Z,6.13
2023-03-01T19:20:22.325Z,7.15
2023-03-01T19:22:24.797Z,6.20
2023-03-01T19:24:26.488Z,6.18
2023-03-01T19:26:28.635Z,6.05
2023-03-01T19:28:30.675Z,6.57
2023-03-01T19:30:32.407Z,6.78
2023-03-01T19:32:34.142Z,6.25
2023-03-01T19:34:38.194Z,6.10
2023-03-01T19:36:43.833Z,6.55
2023-03-01T19:38:45.451Z,8.50
2023-03-01T19:40:47.087Z,6.45
2023-03-01T19:42:48.687Z,6.78
2023-03-01T19:44:50.352Z,6.57
2023-03-01T19:46:59.255Z,6.28
2023-03-01T19:49:03.050Z,6.30
2023-03-01T19:51:04.943Z,6.75
2023-03-01T19:53:06.645Z,6.38
2023-03-01T19:55:10.225Z,6.45
2023-03-01T19:57:11.966Z,5.97
2023-03-01T19:59:14.386Z,6.95
2023-03-01T20:01:21.291Z,6.38
2023-03-01T20:03:23.095Z,6.78
2023-03-01T20:05:24.802Z,6.18
2023-03-01T20:07:26.504Z,7.05
2023-03-01T20:09:28.248Z,6.35
2023-03-01T20:11:29.970Z,6.38
2023-03-01T20:13:31.882Z,6.93
2023-03-01T20:15:33.574Z,6.40
2023-03-01T20:17:35.407Z,6.22
2023-03-01T20:19:37.162Z,5.93
2023-03-01T20:21:38.925Z,5.90
2023-03-01T20:23:40.682Z,6.13
2023-03-01T20:25:42.334Z,6.40
2023-03-01T20:27:47.411Z,6.47
2023-03-01T20:29:49.094Z,6.20
2023-03-01T20:31:50.884Z,6.35
2023-03-01T20:33:58.200Z,6.28
2023-03-01T20:36:00.247Z,6.07
2023-03-01T20:38:03.359Z,5.85
2023-03-01T20:40:05.726Z,5.97
2023-03-01T20:42:07.518Z,6.10
2023-03-01T20:44:10.554Z,6.22
2023-03-01T20:46:13.522Z,5.88
2023-03-01T20:48:15.256Z,6.20
2023-03-01T20:50:17.494Z,6.53
2023-03-01T20:52:19.473Z,6.40
2023-03-01T20:54:21.146Z,6.30
2023-03-01T20:56:23.786Z,5.63
2023-03-01T20:58:25.413Z,6.82
2023-03-01T21:00:27.157Z,6.07
2023-03-01T21:02:28.764Z,5.88
2023-03-01T21:04:30.445Z,6.55
2023-03-01T21:06:32.574Z,6.43
2023-03-01T21:08:35.295Z,6.60
2023-03-01T21:10:36.937Z,6.47
2023-03-01T21:12:38.630Z,6.80
2023-03-01T21:14:43.399Z,6.93
2023-03-01T21:16:47.778Z,6.38
2023-03-01T21:18:49.592Z,6.88
2023-03-01T21:20:51.202Z,6.30
2023-03-01T21:22:52.860Z,6.47
2023-03-01T21:24:54.800Z,6.55
2023-03-01T21:26:56.581Z,6.03
2023-03-01T21:29:01.371Z,6.90
2023-03-01T21:31:09.096Z,5.95
2023-03-01T21:33:10.715Z,6.63
2023-03-01T21:35:13.281Z,6.45
2023-03-01T21:37:14.971Z,6.80
2023-03-01T21:39:16.613Z,6.20
2023-03-01T21:41:23.963Z,6.43
2023-03-01T21:43:25.722Z,6.20
2023-03-01T21:45:27.470Z,5.90
2023-03-01T21:47:29.183Z,6.38
2023-03-01T21:49:30.904Z,6.43
2023-03-01T21:51:33.299Z,6.22
2023-03-01T21:53:35.881Z,6.70
2023-03-01T21:55:37.551Z,6.97
2023-03-01T21:57:43.723Z,6.80
2023-03-01T21:59:45.493Z,6.38
2023-03-01T22:01:48.919Z,6.45
2023-03-01T22:03:50.898Z,6.70
2023-03-01T22:06:00.787Z,5.72
2023-03-01T22:08:03.405Z,6.72
2023-03-01T22:10:06.020Z,6.32
2023-03-01T22:12:07.757Z,6.45
2023-03-01T22:14:10.070Z,6.10
2023-03-01T22:16:12.044Z,6.10
2023-03-01T22:18:14.262Z,6.68
2023-03-01T22:20:16.477Z,6.40
2023-03-01T22:22:18.124Z,6.15
2023-03-01T22:24:23.148Z,6.68
2023-03-01T22:26:35.026Z,6.50
2023-03-01T22:28:36.897Z,7.13
2023-03-01T22:30:38.620Z,6.70
2023-03-01T22:32:40.375Z,7.07
2023-03-01T22:34:42.114Z,6.75
2023-03-01T22:36:44.545Z,6.60
2023-03-01T22:38:46.646Z,6.10
2023-03-01T22:40:59.934Z,5.95
2023-03-01T22:43:01.622Z,6.38
2023-03-01T22:45:03.484Z,6.72
2023-03-01T22:47:05.166Z,6.70
2023-03-01T22:49:07.144Z,6.93
2023-03-01T22:51:14.386Z,7.38
2023-03-01T22:53:16.801Z,6.28
2023-03-01T22:55:19.056Z,6.63
2023-03-01T22:57:20.794Z,7.03
2023-03-01T22:59:25.715Z,7.45
2023-03-01T23:01:28.832Z,6.30
2023-03-01T23:03:30.758Z,7.47
2023-03-01T23:05:32.616Z,6.97
2023-03-01T23:07:34.676Z,7.03
2023-03-01T23:09:36.884Z,6.85
2023-03-01T23:11:38.509Z,7.30
2023-03-01T23:13:40.620Z,7.18
2023-03-01T23:15:44.733Z,6.53
2023-03-01T23:17:46.486Z,7.43
2023-03-01T23:19:48.328Z,7.05
2023-03-01T23:21:50.551Z,6.90
2023-03-01T23:23:53.889Z,7.15
2023-03-01T23:25:56.475Z,7.75
2023-03-01T23:27:58.344Z,6.88
2023-03-01T23:30:00.000Z,7.35
2023-03-01T23:32:02.194Z,7.20
2023-03-01T23:34:04.124Z,7.00
2023-03-01T23:36:26.175Z,6.97
2023-03-01T23:38:27.914Z,6.90
2023-03-01T23:40:29.576Z,6.95
2023-03-01T23:42:31.322Z,7.65
2023-03-01T23:44:33.090Z,6.88
2023-03-01T23:46:37.255Z,6.80
2023-03-01T23:48:38.989Z,7.05
2023-03-01T23:50:44.176Z,7.35
2023-03-01T23:52:45.844Z,7.30
2023-03-01T23:54:47.496Z,7.07
2023-03-01T23:56:49.311Z,7.00
2023-03-01T23:58:50.965Z,7.13
